Time;durP1;ratioP1;P1;durP2;ratioP2;P2;SDS_P1;SDS_P2;PMS_P1;PMS_P2;Temp;Humidity;BMP_temperature;BMP_pressure;BME280_temperature;BME280_humidity;BME280_pressure;Samples;Min_cycle;Max_cycle;Signal;HPM_P1;HPM_P2
2022/01/18 00:01:52;;;;;;;7.00;0.80;;;;;;;6.77;94.61;102627.78;4918482;29;20134;-71
2022/01/18 00:04:18;;;;;;;0.60;0.60;;;;;;;6.65;95.12;102627.34;4935904;29;20391;-71
2022/01/18 00:06:48;;;;;;;1.05;0.43;;;;;;;6.75;94.74;102624.59;4935391;29;20038;-71
2022/01/18 00:09:14;;;;;;;3.17;1.10;;;;;;;6.76;94.12;102629.66;4908236;29;20035;-71
2022/01/18 00:11:47;;;;;;;2.05;0.85;;;;;;;6.69;94.68;102623.03;4935004;29;20074;-71
2022/01/18 00:14:25;;;;;;;0.25;0.25;;;;;;;6.63;95.76;102621.47;4916938;29;20032;-71
2022/01/18 00:19:40;;;;;;;2.08;0.88;;;;;;;6.76;94.67;102632.34;4916093;29;20044;-71
2022/01/18 00:22:12;;;;;;;2.40;0.80;;;;;;;6.77;94.90;102633.94;4931725;29;20035;-71
2022/01/18 00:24:40;;;;;;;1.00;0.45;;;;;;;6.86;94.62;102642.16;4934585;29;20083;-71
2022/01/18 00:27:13;;;;;;;1.10;0.40;;;;;;;6.88;93.66;102640.81;4918821;29;20032;-71
2022/01/18 00:29:46;;;;;;;3.70;0.82;;;;;;;6.79;94.41;102639.81;4942422;28;20038;-71
2022/01/18 00:32:27;;;;;;;1.92;1.02;;;;;;;6.77;94.93;102636.63;4935623;29;20043;-71
2022/01/18 00:34:56;;;;;;;1.35;0.68;;;;;;;6.86;94.53;102653.69;4917780;29;20035;-71
2022/01/18 00:37:34;;;;;;;4.80;1.42;;;;;;;6.85;94.67;102654.75;4935195;29;20082;-71
2022/01/18 00:40:01;;;;;;;1.77;0.52;;;;;;;6.83;95.30;102653.44;4933470;29;20047;-71
2022/01/18 00:42:26;;;;;;;0.70;0.30;;;;;;;6.85;95.21;102649.38;4922557;29;20127;-71
2022/01/18 00:44:55;;;;;;;1.90;0.82;;;;;;;6.95;95.61;102664.59;4918058;29;20059;-71
2022/01/18 00:47:20;;;;;;;1.33;0.70;;;;;;;6.80;96.13;102668.19;4914716;29;20449;-71
2022/01/18 00:49:56;;;;;;;10.23;2.42;;;;;;;6.71;97.08;102666.38;4927249;29;20123;-72
2022/01/18 00:52:22;;;;;;;0.40;0.40;;;;;;;6.70;97.52;102678.97;4915372;29;20028;-71
2022/01/18 00:54:47;;;;;;;7.20;1.65;;;;;;;6.79;97.54;102680.00;4931843;29;20035;-69
2022/01/18 00:57:16;;;;;;;0.28;0.28;;;;;;;6.87;97.24;102683.94;4933571;29;20036;-69
2022/01/18 00:59:42;;;;;;;7.72;0.73;;;;;;;6.81;97.61;102674.34;4935060;29;20040;-70
2022/01/18 01:02:09;;;;;;;1.13;0.57;;;;;;;6.93;96.91;102680.94;4934197;29;20075;-70
2022/01/18 01:04:39;;;;;;;1.02;0.60;;;;;;;7.07;96.75;102686.44;4928969;29;20070;-71
2022/01/18 01:07:04;;;;;;;4.03;0.82;;;;;;;6.99;97.08;102673.66;4917368;29;20043;-70
2022/01/18 01:09:30;;;;;;;2.10;0.55;;;;;;;7.08;97.11;102661.28;4934218;29;20416;-71
2022/01/18 01:11:55;;;;;;;2.38;0.80;;;;;;;7.00;97.88;102662.69;4923311;29;20115;-69
2022/01/18 01:14:24;;;;;;;2.03;0.70;;;;;;;7.08;97.68;102669.31;4917596;29;20031;-70
2022/01/18 01:36:20;;;;;;;0.25;0.25;;;;;;;7.20;97.77;102673.19;4935057;29;20106;-71
2022/01/18 01:46:28;;;;;;;1.25;0.50;;;;;;;7.11;98.38;102676.78;4976300;28;20035;-70
2022/01/18 01:48:56;;;;;;;0.45;0.40;;;;;;;7.25;97.84;102683.91;4978939;28;20041;-70
2022/01/18 01:51:29;;;;;;;0.50;0.28;;;;;;;7.19;97.53;102693.06;4971364;28;20034;-70
2022/01/18 01:54:03;;;;;;;3.85;1.05;;;;;;;7.10;98.29;102684.00;4970435;28;20133;-69
2022/01/18 01:56:30;;;;;;;0.57;0.43;;;;;;;7.08;99.18;102688.84;4969997;28;20035;-70
2022/01/18 01:58:57;;;;;;;1.63;0.57;;;;;;;7.18;97.96;102691.44;4970772;28;20030;-69
2022/01/18 02:01:23;;;;;;;0.40;0.40;;;;;;;7.13;97.96;102683.47;4970009;28;20081;-69
2022/01/18 02:03:48;;;;;;;0.20;0.20;;;;;;;7.23;98.39;102688.72;4969611;28;20878;-70
2022/01/18 02:06:14;;;;;;;1.77;0.60;;;;;;;7.20;98.38;102693.84;4973318;28;20038;-71
2022/01/18 02:08:41;;;;;;;0.40;0.35;;;;;;;7.14;98.55;102692.28;4990386;28;20065;-70
2022/01/18 02:11:06;;;;;;;4.45;0.77;;;;;;;7.16;98.66;102706.22;4970668;28;20402;-71
2022/01/18 02:13:33;;;;;;;4.28;0.75;;;;;;;7.20;97.97;102689.28;4975255;28;20090;-69
2022/01/18 02:23:56;;;;;;;4.75;0.40;;;;;;;7.12;99.18;102697.91;4962710;28;20074;-70
2022/01/18 02:26:21;;;;;;;1.52;0.60;;;;;;;7.16;99.50;102693.59;4970666;28;20038;-69
2022/01/18 02:28:47;;;;;;;1.77;0.38;;;;;;;7.16;99.53;102698.19;4971122;28;20030;-70
2022/01/18 02:31:12;;;;;;;4.70;0.40;;;;;;;7.22;99.18;102703.19;4966790;28;20396;-71
2022/01/18 02:33:38;;;;;;;2.85;0.60;;;;;;;7.23;99.01;102704.00;4970848;28;20031;-70
2022/01/18 02:36:09;;;;;;;1.42;0.50;;;;;;;7.25;98.78;102704.53;4950877;29;20483;-70
2022/01/18 02:38:35;;;;;;;2.20;0.55;;;;;;;7.27;98.77;102703.16;4975168;28;20062;-71
2022/01/18 02:41:01;;;;;;;2.42;0.85;;;;;;;7.19;99.19;102703.78;4963573;28;20514;-70
2022/01/18 02:46:11;;;;;;;1.42;0.50;;;;;;;7.34;98.71;102707.41;4972380;28;20073;-69
2022/01/18 02:48:37;;;;;;;2.08;0.32;;;;;;;7.27;99.09;102711.22;4972724;28;20066;-70
2022/01/18 02:51:02;;;;;;;0.90;0.50;;;;;;;7.24;99.27;102703.72;4974427;28;20085;-70
2022/01/18 02:53:28;;;;;;;1.85;0.55;;;;;;;7.25;99.71;102715.25;4967452;28;20446;-69
2022/01/18 02:55:56;;;;;;;0.45;0.45;;;;;;;7.27;100.00;102710.41;4972617;28;20078;-70
2022/01/18 02:58:28;;;;;;;1.95;0.40;;;;;;;7.34;99.82;102704.72;4975628;28;20045;-70
2022/01/18 03:03:38;;;;;;;3.88;0.43;;;;;;;7.36;99.85;102702.53;4990126;28;20088;-70
2022/01/18 03:06:05;;;;;;;0.13;0.13;;;;;;;7.32;100.00;102708.47;4974986;28;20062;-69
2022/01/18 03:08:31;;;;;;;2.55;0.40;;;;;;;7.30;100.00;102702.59;4971302;28;20035;-70
2022/01/18 03:10:57;;;;;;;0.40;0.30;;;;;;;7.32;100.00;102702.31;4987215;28;20039;-70
2022/01/18 03:13:23;;;;;;;11.80;1.25;;;;;;;7.27;100.00;102703.16;4974628;28;20035;-70
2022/01/18 03:15:48;;;;;;;0.35;0.20;;;;;;;7.35;100.00;102707.13;4973993;28;20030;-70
2022/01/18 03:18:14;;;;;;;4.57;0.45;;;;;;;7.37;100.00;102717.53;4974697;28;20557;-70
2022/01/18 03:20:39;;;;;;;0.55;0.43;;;;;;;7.41;100.00;102711.34;4965007;28;20081;-69
2022/01/18 03:23:11;;;;;;;4.88;0.52;;;;;;;7.39;100.00;102718.06;4973159;28;20070;-70
2022/01/18 03:28:05;;;;;;;2.38;0.55;;;;;;;7.37;100.00;102704.16;4967739;28;20748;-70
2022/01/18 03:30:39;;;;;;;1.08;0.40;;;;;;;7.42;100.00;102715.63;4973681;28;20461;-70
2022/01/18 03:33:07;;;;;;;1.08;0.32;;;;;;;7.46;100.00;102713.97;4975575;28;20093;-71
2022/01/18 03:35:34;;;;;;;0.20;0.20;;;;;;;7.41;100.00;102713.22;4974469;28;20113;-70
2022/01/18 03:37:59;;;;;;;2.38;0.50;;;;;;;7.55;100.00;102719.53;4973006;28;20561;-71
2022/01/18 03:40:25;;;;;;;2.70;0.40;;;;;;;7.51;100.00;102718.50;4970025;28;20139;-71
2022/01/18 03:42:52;;;;;;;1.13;0.57;;;;;;;7.47;100.00;102714.78;4973345;28;20057;-70
2022/01/18 03:45:25;;;;;;;3.03;0.55;;;;;;;7.52;100.00;102731.59;4973781;28;20046;-70
2022/01/18 03:47:51;;;;;;;2.10;0.35;;;;;;;7.49;100.00;102724.13;4957129;28;20122;-70
2022/01/18 03:50:18;;;;;;;1.35;0.50;;;;;;;7.42;100.00;102718.28;4969293;28;20062;-70
2022/01/18 03:52:44;;;;;;;1.90;0.45;;;;;;;7.47;100.00;102725.50;4974532;28;20038;-70
2022/01/18 03:55:12;;;;;;;0.90;0.50;;;;;;;7.49;100.00;102729.47;4974089;28;20372;-70
2022/01/18 03:57:41;;;;;;;0.20;0.20;;;;;;;7.42;100.00;102734.38;4970960;28;20034;-71
2022/01/18 04:00:18;;;;;;;0.85;0.40;;;;;;;7.46;100.00;102732.72;4982780;28;20038;-71
2022/01/18 04:02:44;;;;;;;2.40;0.40;;;;;;;7.50;100.00;102733.78;4959511;28;20459;-70
2022/01/18 04:05:10;;;;;;;4.88;0.38;;;;;;;7.55;100.00;102727.56;4972987;28;20073;-70
2022/01/18 04:07:36;;;;;;;0.30;0.30;;;;;;;7.63;99.77;102730.41;4970472;28;20038;-70
2022/01/18 04:10:07;;;;;;;0.25;0.25;;;;;;;7.68;98.92;102726.91;4972418;28;20043;-70
2022/01/18 04:12:34;;;;;;;8.48;0.65;;;;;;;7.55;99.32;102730.25;4974167;28;20031;-71
2022/01/18 04:15:00;;;;;;;0.93;0.25;;;;;;;7.55;99.54;102725.66;4974224;28;20039;-70
2022/01/18 04:28:13;;;;;;;0.65;0.35;;;;;;;7.53;98.83;102735.09;4972860;28;20074;-71
2022/01/18 04:30:38;;;;;;;0.40;0.40;;;;;;;7.57;99.15;102738.81;4970390;28;20073;-70
2022/01/18 04:33:04;;;;;;;0.73;0.68;;;;;;;7.59;98.56;102742.00;4965323;28;20050;-71
2022/01/18 04:35:29;;;;;;;0.40;0.25;;;;;;;7.54;99.40;102753.56;4957243;28;20031;-71
2022/01/18 04:37:54;;;;;;;0.57;0.57;;;;;;;7.57;99.58;102749.53;4973842;28;20118;-70
2022/01/18 04:40:28;;;;;;;0.90;0.35;;;;;;;7.56;99.74;102755.97;4973005;28;20031;-71
2022/01/18 04:50:50;;;;;;;0.30;0.30;;;;;;;7.65;98.95;102768.47;4957666;28;20138;-70
2022/01/18 04:53:15;;;;;;;3.05;0.32;;;;;;;7.63;99.13;102761.78;4973038;28;20043;-70
2022/01/18 04:55:40;;;;;;;3.72;0.47;;;;;;;7.59;99.23;102766.91;4973913;28;20104;-70
2022/01/18 04:58:06;;;;;;;6.13;0.40;;;;;;;7.57;99.89;102766.41;4973351;28;20081;-70
2022/01/18 05:00:31;;;;;;;0.55;0.30;;;;;;;7.56;99.98;102764.00;4967036;28;20443;-70
2022/01/18 05:02:57;;;;;;;0.52;0.20;;;;;;;7.59;100.00;102771.50;4968443;28;20090;-71
2022/01/18 05:05:36;;;;;;;0.55;0.25;;;;;;;7.53;99.78;102757.31;4968731;28;20567;-71
2022/01/18 05:08:05;;;;;;;1.77;0.28;;;;;;;7.60;100.00;102767.72;4966022;28;20039;-70
2022/01/18 05:10:30;;;;;;;0.32;0.30;;;;;;;7.67;99.25;102773.53;4969828;28;20034;-70
2022/01/18 05:12:57;;;;;;;0.38;0.38;;;;;;;7.68;99.15;102764.44;4972594;28;20045;-71
2022/01/18 05:23:12;;;;;;;0.70;0.70;;;;;;;7.68;100.00;102772.47;4972763;28;20054;-71
2022/01/18 05:25:38;;;;;;;1.27;0.40;;;;;;;7.72;99.85;102776.19;4972582;28;20034;-70
2022/01/18 05:28:06;;;;;;;0.30;0.30;;;;;;;7.69;100.00;102776.75;4967389;28;20124;-70
2022/01/18 05:30:32;;;;;;;2.55;0.63;;;;;;;7.61;100.00;102785.41;4964303;28;20070;-70
2022/01/18 05:32:59;;;;;;;0.13;0.13;;;;;;;7.66;100.00;102788.06;4966871;28;20030;-70
2022/01/18 05:35:25;;;;;;;0.43;0.43;;;;;;;7.70;100.00;102795.25;4970011;28;20037;-70
2022/01/18 05:37:51;;;;;;;0.20;0.20;;;;;;;7.72;100.00;102795.78;4972963;28;20039;-70
2022/01/18 05:40:18;;;;;;;1.65;0.30;;;;;;;7.72;100.00;102792.28;4967542;28;20483;-70
2022/01/18 05:42:44;;;;;;;0.28;0.28;;;;;;;7.67;99.73;102795.81;4950798;28;20039;-70
2022/01/18 05:45:10;;;;;;;0.10;0.10;;;;;;;7.75;99.84;102795.19;4967558;28;20034;-71
2022/01/18 05:47:38;;;;;;;1.45;0.32;;;;;;;7.79;99.56;102790.06;4965049;28;20039;-70
2022/01/18 05:50:05;;;;;;;0.50;0.50;;;;;;;7.78;100.00;102799.22;4952241;28;20039;-71
2022/01/18 05:52:30;;;;;;;0.22;0.10;;;;;;;7.72;100.00;102798.47;4956495;28;20043;-72
2022/01/18 05:54:56;;;;;;;4.97;0.77;;;;;;;7.82;100.00;102797.56;4945267;28;20042;-70
2022/01/18 05:57:21;;;;;;;2.85;0.20;;;;;;;7.88;100.00;102796.41;4956631;28;20034;-72
2022/01/18 05:59:48;;;;;;;0.45;0.45;;;;;;;7.77;100.00;102794.91;4942869;28;20077;-71
2022/01/18 06:02:16;;;;;;;5.20;0.52;;;;;;;7.65;100.00;102805.19;4953698;28;20807;-72
2022/01/18 06:07:28;;;;;;;2.25;0.28;;;;;;;7.82;100.00;102813.66;4968129;28;20855;-70
2022/01/18 06:09:56;;;;;;;1.42;0.55;;;;;;;7.82;100.00;102821.69;4951303;28;20042;-70
2022/01/18 06:12:26;;;;;;;0.40;0.40;;;;;;;7.70;100.00;102811.34;4958734;28;20066;-70
2022/01/18 06:14:52;;;;;;;2.38;0.30;;;;;;;7.70;100.00;102816.72;4951497;28;20604;-70
2022/01/18 06:17:17;;;;;;;0.63;0.28;;;;;;;7.75;100.00;102815.84;4960561;28;20117;-70
2022/01/18 06:19:43;;;;;;;3.40;0.20;;;;;;;7.64;100.00;102811.66;4983729;28;20584;-71
2022/01/18 06:22:08;;;;;;;2.30;0.35;;;;;;;7.72;100.00;102813.75;4965275;28;20047;-71
2022/01/18 06:24:34;;;;;;;0.75;0.40;;;;;;;7.76;100.00;102804.84;4970615;28;20038;-71
2022/01/18 06:26:59;;;;;;;2.28;0.55;;;;;;;7.71;100.00;102825.53;4970308;28;20398;-71
2022/01/18 06:29:24;;;;;;;0.20;0.20;;;;;;;7.73;100.00;102815.31;4965595;28;20062;-71
2022/01/18 06:31:50;;;;;;;2.10;0.40;;;;;;;7.70;100.00;102815.91;4972256;28;20026;-71
2022/01/18 06:34:15;;;;;;;3.75;0.50;;;;;;;7.70;100.00;102805.97;4968004;28;20065;-70
2022/01/18 06:36:41;;;;;;;2.65;0.95;;;;;;;7.61;100.00;102809.53;4960594;28;20407;-71
2022/01/18 06:39:07;;;;;;;1.38;0.90;;;;;;;7.59;100.00;102809.03;4966328;28;20519;-70
2022/01/18 06:41:33;;;;;;;0.75;0.40;;;;;;;7.52;100.00;102809.34;4962405;28;20134;-70
2022/01/18 06:43:59;;;;;;;1.63;0.60;;;;;;;7.44;100.00;102801.91;4969495;28;20122;-70
2022/01/18 06:46:25;;;;;;;1.98;0.50;;;;;;;7.51;100.00;102815.00;4950637;28;20035;-70
2022/01/18 06:48:52;;;;;;;0.80;0.45;;;;;;;7.68;100.00;102815.38;4966695;28;20027;-70
2022/01/18 06:51:17;;;;;;;1.75;0.63;;;;;;;7.72;100.00;102822.59;4970454;28;20062;-70
2022/01/18 06:53:46;;;;;;;3.78;0.73;;;;;;;7.65;100.00;102822.09;4961571;28;20133;-72
2022/01/18 06:56:16;;;;;;;4.18;0.80;;;;;;;7.72;100.00;102821.78;4976163;28;20489;-70
2022/01/18 06:58:45;;;;;;;1.43;0.73;;;;;;;7.61;100.00;102828.28;4961109;28;20061;-71
2022/01/18 07:01:13;;;;;;;5.35;0.75;;;;;;;7.66;100.00;102837.13;4956539;28;20063;-71
2022/01/18 07:03:39;;;;;;;3.58;0.68;;;;;;;7.79;100.00;102828.41;4965255;28;20122;-71
2022/01/18 07:06:05;;;;;;;2.97;1.20;;;;;;;7.74;100.00;102830.34;4966106;28;20034;-71
2022/01/18 07:08:30;;;;;;;7.97;0.98;;;;;;;7.76;100.00;102825.50;4968597;28;20070;-70
2022/01/18 07:10:56;;;;;;;1.55;0.75;;;;;;;7.73;100.00;102821.50;4968568;28;20081;-70
2022/01/18 07:13:22;;;;;;;3.42;0.63;;;;;;;7.68;100.00;102824.22;4969472;28;20492;-69
2022/01/18 07:15:47;;;;;;;1.58;0.75;;;;;;;7.76;100.00;102825.50;4967644;28;20125;-71
2022/01/18 07:18:13;;;;;;;3.67;0.88;;;;;;;7.74;100.00;102833.81;4968139;28;20038;-71
2022/01/18 07:20:40;;;;;;;2.55;1.08;;;;;;;7.71;100.00;102838.94;4966438;28;20039;-71
2022/01/18 07:23:07;;;;;;;4.57;1.45;;;;;;;7.82;100.00;102848.53;4964484;28;20109;-70
2022/01/18 07:25:34;;;;;;;9.38;1.25;;;;;;;7.88;100.00;102848.19;4968691;28;20049;-71
2022/01/18 07:28:00;;;;;;;1.83;1.35;;;;;;;7.77;100.00;102848.53;4978565;28;20050;-70
2022/01/18 07:30:25;;;;;;;2.47;1.65;;;;;;;7.82;100.00;102859.25;4961245;28;20039;-72
2022/01/18 07:32:51;;;;;;;2.75;1.20;;;;;;;7.80;100.00;102859.50;4971326;28;20497;-71
2022/01/18 07:35:16;;;;;;;2.22;0.98;;;;;;;7.81;100.00;102853.06;4968730;28;20042;-72
2022/01/18 07:37:43;;;;;;;3.25;0.93;;;;;;;7.74;100.00;102865.22;4965543;28;20558;-70
2022/01/18 07:40:09;;;;;;;3.15;1.60;;;;;;;7.81;100.00;102853.06;4970713;28;20125;-71
2022/01/18 07:42:34;;;;;;;1.23;0.82;;;;;;;7.85;100.00;102848.75;4967736;28;20192;-71
2022/01/18 07:45:00;;;;;;;3.05;0.95;;;;;;;7.85;100.00;102845.25;4962312;28;20050;-72
2022/01/18 07:47:25;;;;;;;3.88;0.70;;;;;;;7.81;100.00;102857.63;4968089;28;20488;-71
2022/01/18 07:49:51;;;;;;;1.60;0.95;;;;;;;7.94;100.00;102855.09;4954673;23;20618;-71
2022/01/18 07:52:17;;;;;;;2.20;1.27;;;;;;;7.92;100.00;102854.59;4921043;29;20419;-70
2022/01/18 07:54:42;;;;;;;2.78;1.95;;;;;;;8.08;100.00;102863.28;4940728;28;20767;-70
2022/01/18 07:57:08;;;;;;;2.63;1.52;;;;;;;7.89;100.00;102857.84;4945035;28;20062;-70
2022/01/18 07:59:34;;;;;;;4.88;1.50;;;;;;;7.87;100.00;102859.19;4932880;29;20043;-70
2022/01/18 08:01:59;;;;;;;6.05;2.35;;;;;;;8.09;100.00;102857.63;4939293;29;20044;-70
2022/01/18 08:04:25;;;;;;;5.43;1.30;;;;;;;7.96;100.00;102858.31;4927234;29;20043;-70
2022/01/18 08:06:50;;;;;;;2.83;1.35;;;;;;;8.00;100.00;102862.03;4928574;29;20035;-70
2022/01/18 08:09:19;;;;;;;4.00;1.00;;;;;;;8.01;100.00;102858.25;4946372;29;20032;-70
2022/01/18 08:11:46;;;;;;;4.15;1.20;;;;;;;8.04;100.00;102865.75;4931961;29;20051;-70
2022/01/18 08:14:17;;;;;;;3.83;1.35;;;;;;;8.05;100.00;102861.97;4930623;29;20039;-71
2022/01/18 08:16:59;;;;;;;6.22;1.67;;;;;;;8.12;100.00;102869.69;4929952;29;20036;-71
2022/01/18 08:19:25;;;;;;;1.00;0.80;;;;;;;8.19;100.00;102870.16;4945143;29;20171;-70
2022/01/18 08:21:51;;;;;;;2.08;1.05;;;;;;;8.16;100.00;102870.72;4927024;29;20539;-70
2022/01/18 08:24:16;;;;;;;2.03;0.98;;;;;;;8.25;100.00;102871.72;4928689;29;20027;-70
2022/01/18 08:26:42;;;;;;;7.25;1.70;;;;;;;8.25;100.00;102876.28;4930343;29;20551;-70
2022/01/18 08:29:08;;;;;;;6.93;1.90;;;;;;;8.12;100.00;102881.22;4928793;29;20065;-70
2022/01/18 08:31:33;;;;;;;6.63;1.33;;;;;;;8.21;100.00;102887.56;4925879;29;20042;-70
2022/01/18 08:34:01;;;;;;;2.13;1.15;;;;;;;8.14;100.00;102889.00;4929530;29;20043;-70
2022/01/18 08:36:27;;;;;;;2.30;0.85;;;;;;;8.13;100.00;102892.75;4923768;29;20035;-70
2022/01/18 08:38:53;;;;;;;1.27;1.05;;;;;;;8.23;100.00;102893.47;4927757;29;20086;-70
2022/01/18 08:41:19;;;;;;;6.57;1.20;;;;;;;8.26;100.00;102897.50;4930581;29;20161;-70
2022/01/18 08:43:44;;;;;;;0.93;0.63;;;;;;;8.25;100.00;102897.75;4933090;29;20035;-70
2022/01/18 08:46:11;;;;;;;2.72;0.93;;;;;;;8.39;100.00;102896.03;4947482;29;20086;-71
2022/01/18 08:48:37;;;;;;;4.60;1.20;;;;;;;8.42;100.00;102895.47;4928953;29;20045;-71
2022/01/18 08:51:03;;;;;;;2.28;0.93;;;;;;;8.47;100.00;102900.78;4927941;29;20052;-70
2022/01/18 08:53:28;;;;;;;3.40;2.22;;;;;;;8.45;100.00;102901.06;4932213;29;20043;-71
2022/01/18 08:55:54;;;;;;;4.30;1.35;;;;;;;8.37;100.00;102899.00;4928360;29;20393;-70
2022/01/18 08:58:21;;;;;;;1.70;0.85;;;;;;;8.37;100.00;102901.69;4932307;29;20031;-70
2022/01/18 09:00:47;;;;;;;11.45;0.90;;;;;;;8.37;100.00;102904.38;4924206;29;20035;-70
2022/01/18 09:03:12;;;;;;;12.25;2.17;;;;;;;8.47;100.00;102903.47;4930667;29;20519;-71
2022/01/18 09:05:38;;;;;;;2.95;0.68;;;;;;;8.46;100.00;102909.94;4933601;29;20044;-70
2022/01/18 09:08:06;;;;;;;4.18;1.15;;;;;;;8.54;100.00;102910.09;4932859;29;20039;-70
2022/01/18 09:10:32;;;;;;;2.53;1.00;;;;;;;8.65;100.00;102911.56;4932332;29;20050;-70
2022/01/18 09:12:58;;;;;;;7.28;1.15;;;;;;;8.73;100.00;102916.31;4941832;29;20039;-71
2022/01/18 09:15:25;;;;;;;3.67;0.70;;;;;;;8.57;100.00;102922.97;4924006;29;20111;-70
2022/01/18 09:17:51;;;;;;;7.43;1.00;;;;;;;8.58;100.00;102913.81;4933609;29;20412;-71
2022/01/18 09:20:16;;;;;;;7.45;1.23;;;;;;;8.55;100.00;102930.50;4930021;29;20036;-70
2022/01/18 09:22:45;;;;;;;3.45;1.33;;;;;;;8.62;100.00;102924.78;4927113;29;20056;-70
2022/01/18 09:25:15;;;;;;;1.80;1.08;;;;;;;8.41;100.00;102934.13;4921279;29;20057;-71
2022/01/18 09:27:41;;;;;;;6.60;1.20;;;;;;;8.56;100.00;102945.50;4947080;29;20764;-70
2022/01/18 09:30:07;;;;;;;3.42;2.05;;;;;;;8.64;100.00;102954.84;4929602;29;20039;-71
2022/01/18 09:32:36;;;;;;;2.40;1.30;;;;;;;8.57;100.00;102949.81;4932569;29;20046;-71
2022/01/18 09:35:01;;;;;;;7.13;1.10;;;;;;;8.73;100.00;102951.22;4934107;29;20066;-70
2022/01/18 09:37:27;;;;;;;6.70;1.02;;;;;;;8.67;100.00;102959.66;4931084;29;20039;-70
2022/01/18 09:39:53;;;;;;;8.75;2.47;;;;;;;8.69;100.00;102955.56;4929163;29;20044;-71
2022/01/18 09:42:21;;;;;;;9.82;1.10;;;;;;;8.68;100.00;102963.91;4930747;29;20499;-71
2022/01/18 09:44:47;;;;;;;9.02;1.70;;;;;;;8.64;100.00;102960.19;4948059;29;20083;-71
2022/01/18 09:47:13;;;;;;;3.92;0.95;;;;;;;8.70;100.00;102964.44;4933251;29;20046;-71
2022/01/18 09:49:39;;;;;;;3.17;0.75;;;;;;;8.73;100.00;102969.25;4927463;29;20412;-70
2022/01/18 09:52:04;;;;;;;0.82;0.73;;;;;;;8.73;100.00;102958.50;4928958;29;20680;-71
2022/01/18 09:54:30;;;;;;;4.43;1.10;;;;;;;8.83;100.00;102964.56;4930721;29;20047;-70
2022/01/18 09:56:56;;;;;;;6.85;0.90;;;;;;;8.80;100.00;102965.16;4928773;29;20047;-70
2022/01/18 09:59:22;;;;;;;5.63;0.98;;;;;;;8.85;100.00;102965.06;4925359;29;20095;-70
2022/01/18 10:01:47;;;;;;;0.90;0.65;;;;;;;8.93;100.00;102969.03;4931343;29;20043;-70
2022/01/18 10:04:26;;;;;;;1.48;0.60;;;;;;;8.86;100.00;102969.38;4927746;29;20098;-71
2022/01/18 10:06:55;;;;;;;2.60;0.40;;;;;;;8.74;100.00;102963.59;4929009;29;20058;-71
2022/01/18 10:09:21;;;;;;;5.53;1.67;;;;;;;8.76;100.00;102966.00;4922497;29;20047;-70
2022/01/18 10:12:10;;;;;;;1.13;0.28;;;;;;;8.83;100.00;102963.75;4930472;29;20039;-70
2022/01/18 10:14:54;;;;;;;11.57;0.77;;;;;;;8.69;100.00;102969.00;4925135;29;20038;-71
2022/01/18 10:17:35;;;;;;;4.50;0.60;;;;;;;8.54;100.00;102962.97;4926081;29;20044;-71
2022/01/18 10:20:18;;;;;;;2.03;0.88;;;;;;;8.61;100.00;102961.59;4937403;28;20031;-71
2022/01/18 10:22:49;;;;;;;5.50;0.88;;;;;;;8.67;100.00;102963.13;4929308;29;20792;-70
2022/01/18 10:25:18;;;;;;;2.50;1.40;;;;;;;8.73;100.00;102966.56;4929713;29;20043;-70
2022/01/18 10:27:47;;;;;;;2.17;1.20;;;;;;;8.65;100.00;102962.59;4924497;29;20476;-71
2022/01/18 10:30:20;;;;;;;3.80;2.00;;;;;;;8.83;100.00;102967.25;4925906;29;20047;-71
2022/01/18 10:33:22;;;;;;;7.35;1.75;;;;;;;8.98;100.00;102967.06;4927948;29;20380;-71
2022/01/18 10:36:11;;;;;;;4.85;1.42;;;;;;;8.91;100.00;102963.13;4932902;28;20054;-71
2022/01/18 10:38:43;;;;;;;7.05;1.55;;;;;;;8.79;100.00;102958.16;4945066;29;20042;-70
2022/01/18 10:41:32;;;;;;;;;;;;;;;8.62;100.00;102952.44;4940472;29;20044;-71
2022/01/18 10:44:05;;;;;;;7.88;1.42;;;;;;;8.74;100.00;102963.59;4928123;29;19970;-71
2022/01/18 10:46:56;;;;;;;6.00;1.38;;;;;;;8.78;100.00;102969.19;4924319;29;20054;-71
2022/01/18 10:49:33;;;;;;;3.92;1.23;;;;;;;9.02;100.00;102960.03;4927221;29;20464;-70
2022/01/18 10:52:05;;;;;;;5.45;1.23;;;;;;;8.96;100.00;102955.81;4922469;29;20036;-70
2022/01/18 10:54:46;;;;;;;4.78;1.30;;;;;;;9.13;100.00;102947.28;4930167;29;20035;-71
2022/01/18 10:57:18;;;;;;;2.25;1.27;;;;;;;9.10;100.00;102935.22;4927310;29;20071;-71
2022/01/18 10:59:43;;;;;;;5.20;1.40;;;;;;;9.05;100.00;102929.91;4938726;28;20043;-71
2022/01/18 11:02:21;;;;;;;3.92;0.88;;;;;;;9.20;100.00;102923.53;4930393;29;20026;-71
2022/01/18 11:04:49;;;;;;;2.17;1.88;;;;;;;9.19;100.00;102929.22;4931822;29;20131;-70
2022/01/18 11:07:17;;;;;;;2.40;0.85;;;;;;;9.02;100.00;102941.22;4924374;29;20106;-70
2022/01/18 11:09:43;;;;;;;11.52;1.02;;;;;;;9.13;100.00;102925.78;4933236;29;20043;-70
2022/01/18 11:12:10;;;;;;;4.72;0.70;;;;;;;9.23;100.00;102924.84;4935616;29;20037;-71
2022/01/18 11:14:39;;;;;;;0.50;0.50;;;;;;;9.23;100.00;102924.84;4924995;29;20051;-71
2022/01/18 11:17:07;;;;;;;6.28;0.80;;;;;;;9.05;100.00;102913.00;4932327;29;20074;-71
2022/01/18 11:19:36;;;;;;;1.60;0.50;;;;;;;9.25;100.00;102920.00;4930937;29;20036;-71
2022/01/18 11:22:10;;;;;;;1.17;0.32;;;;;;;9.33;100.00;102914.75;4933699;29;20035;-71
2022/01/18 11:24:38;;;;;;;0.82;0.43;;;;;;;9.32;100.00;102913.16;4933173;29;20516;-70
2022/01/18 11:27:08;;;;;;;2.45;1.27;;;;;;;9.20;100.00;102906.59;4923270;29;20044;-71
2022/01/18 11:29:35;;;;;;;4.13;0.50;;;;;;;9.20;100.00;102912.78;4924551;29;20072;-71
2022/01/18 11:32:01;;;;;;;7.22;0.85;;;;;;;9.20;100.00;102917.34;4921259;29;20031;-71
2022/01/18 11:34:36;;;;;;;1.08;0.50;;;;;;;9.07;100.00;102921.56;4930413;29;20039;-70
2022/01/18 11:37:21;;;;;;;10.65;0.82;;;;;;;9.14;100.00;102915.84;4934132;29;20115;-71
2022/01/18 11:39:47;;;;;;;6.45;1.95;;;;;;;9.24;100.00;102919.19;4948004;29;20043;-71
2022/01/18 11:42:13;;;;;;;0.95;0.73;;;;;;;9.22;100.00;102913.28;4932362;29;20511;-71
2022/01/18 11:44:40;;;;;;;6.68;0.70;;;;;;;9.33;100.00;102914.75;4931301;29;20063;-71
2022/01/18 11:47:08;;;;;;;3.65;0.85;;;;;;;9.39;99.75;102910.91;4930896;29;20040;-71
2022/01/18 11:49:34;;;;;;;2.33;0.40;;;;;;;9.37;99.88;102907.69;4936622;29;20032;-71
2022/01/18 11:52:07;;;;;;;2.88;0.70;;;;;;;9.37;99.64;102906.94;4930318;29;20350;-71
2022/01/18 11:54:57;;;;;;;2.65;0.88;;;;;;;9.34;99.25;102907.50;4938012;29;20560;-71
2022/01/18 11:57:22;;;;;;;1.60;0.45;;;;;;;9.30;99.46;102903.78;4936148;29;20035;-70
2022/01/18 12:00:18;;;;;;;1.45;0.55;;;;;;;9.32;99.12;102894.34;4932557;29;20379;-71
2022/01/18 12:02:45;;;;;;;6.20;0.90;;;;;;;9.22;100.00;102901.75;4921360;29;20036;-71
2022/01/18 12:05:14;;;;;;;4.07;0.70;;;;;;;9.38;98.94;102895.06;4920646;29;20055;-71
2022/01/18 12:07:40;;;;;;;0.40;0.40;;;;;;;9.39;98.73;102897.47;4928917;29;20678;-71
2022/01/18 12:10:31;;;;;;;1.98;0.70;;;;;;;9.30;98.77;102893.03;4926226;29;20040;-71
2022/01/18 12:12:59;;;;;;;1.63;0.70;;;;;;;9.31;99.76;102894.63;4932646;29;20124;-72
2022/01/18 12:15:26;;;;;;;1.42;0.60;;;;;;;9.20;100.00;102901.22;4929697;29;20065;-71
2022/01/18 12:17:53;;;;;;;3.65;2.25;;;;;;;9.26;100.00;102898.19;4920530;29;20620;-72
2022/01/18 12:20:39;;;;;;;1.48;0.50;;;;;;;9.33;99.93;102897.84;4929947;29;20036;-72
2022/01/18 12:23:12;;;;;;;6.40;0.65;;;;;;;9.44;99.23;102904.66;4927779;29;20496;-72
2022/01/18 12:25:55;;;;;;;1.30;0.65;;;;;;;9.42;99.48;102898.78;4926419;29;20443;-72
2022/01/18 12:28:35;;;;;;;1.38;0.60;;;;;;;9.50;99.10;102898.13;4928746;29;20048;-72
2022/01/18 12:31:16;;;;;;;0.77;0.55;;;;;;;9.46;98.39;102900.59;4925108;29;20036;-72
2022/01/18 12:33:44;;;;;;;1.67;0.55;;;;;;;9.34;99.14;102891.34;4927674;29;20070;-72
2022/01/18 12:36:27;;;;;;;1.40;0.63;;;;;;;9.29;98.58;102894.13;4929402;29;20028;-71
2022/01/18 12:39:00;;;;;;;2.42;1.30;;;;;;;9.39;98.48;102888.63;4931339;29;20412;-71
2022/01/18 12:41:50;;;;;;;0.75;0.50;;;;;;;9.33;98.94;102877.09;4914997;29;20043;-73
2022/01/18 12:44:21;;;;;;;0.95;0.43;;;;;;;9.37;98.25;102886.19;4927859;29;20031;-72
2022/01/18 12:46:56;;;;;;;;;;;;;;;9.40;97.96;102877.56;4931550;29;20544;-71
2022/01/18 12:49:22;;;;;;;1.20;0.63;;;;;;;9.47;98.25;102875.28;4931285;29;19915;-71
2022/01/18 12:51:56;;;;;;;0.40;0.40;;;;;;;9.41;98.38;102873.75;4910990;29;20034;-71